createdAt,value
2022-12-25T00:01:25.463Z,101556.41
2022-12-25T00:03:52.939Z,101559.03
2022-12-25T00:06:19.922Z,101564.59
2022-12-25T00:08:46.762Z,101569.63
2022-12-25T00:11:15.998Z,101581.84
2022-12-25T00:13:43.025Z,101579.22
2022-12-25T00:16:19.104Z,101607.34
2022-12-25T00:18:46.311Z,101605.59
2022-12-25T00:21:13.322Z,101614.13
2022-12-25T00:23:40.329Z,101615.38
2022-12-25T00:26:09.188Z,101607.69
2022-12-25T00:28:36.111Z,101604.31
2022-12-25T00:31:11.834Z,101618.22
2022-12-25T00:33:40.423Z,101617.31
2022-12-25T00:36:08.125Z,101618.75
2022-12-25T00:38:36.242Z,101618.81
2022-12-25T00:41:11.088Z,101611.72
2022-12-25T00:43:38.593Z,101618.88
2022-12-25T00:46:06.534Z,101618.22
2022-12-25T00:48:33.936Z,101621.47
2022-12-25T00:51:03.592Z,101613.06
2022-12-25T00:53:30.929Z,101615.00
2022-12-25T00:56:03.369Z,101617.19
2022-12-25T00:58:31.959Z,101617.78
2022-12-25T01:00:58.643Z,101628.81
2022-12-25T01:03:25.711Z,101625.81
2022-12-25T01:06:04.414Z,101637.84
2022-12-25T01:08:35.659Z,101634.50
2022-12-25T01:11:04.643Z,101637.81
2022-12-25T01:13:32.910Z,101638.47
2022-12-25T01:15:59.505Z,101643.34
2022-12-25T01:18:26.797Z,101629.72
2022-12-25T01:20:53.420Z,101627.94
2022-12-25T01:23:19.982Z,101634.97
2022-12-25T01:25:46.601Z,101640.63
2022-12-25T01:28:13.472Z,101637.19
2022-12-25T01:30:40.488Z,101636.34
2022-12-25T01:33:07.115Z,101639.38
2022-12-25T01:35:33.747Z,101651.63
2022-12-25T01:38:00.500Z,101651.72
2022-12-25T01:40:27.284Z,101654.31
2022-12-25T01:42:53.902Z,101662.91
2022-12-25T01:45:41.448Z,101660.84
2022-12-25T01:48:12.365Z,101660.41
2022-12-25T01:50:41.305Z,101666.19
2022-12-25T01:53:08.227Z,101647.94
2022-12-25T01:55:36.461Z,101658.31
2022-12-25T01:58:03.674Z,101658.56
2022-12-25T02:00:30.318Z,101662.81
2022-12-25T02:02:57.743Z,101655.81
2022-12-25T02:05:31.051Z,101662.03
2022-12-25T02:08:24.063Z,101662.63
2022-12-25T02:10:50.655Z,101647.03
2022-12-25T02:13:18.963Z,101654.66
2022-12-25T02:15:54.291Z,101654.03
2022-12-25T02:18:41.084Z,101658.56
2022-12-25T02:21:29.147Z,101660.94
2022-12-25T02:24:10.968Z,101663.78
2022-12-25T02:26:57.740Z,101664.03
2022-12-25T02:29:59.953Z,101666.69
2022-12-25T02:32:26.554Z,101658.53
2022-12-25T02:35:03.352Z,101660.50
2022-12-25T02:37:40.062Z,101666.28
2022-12-25T02:40:22.750Z,101684.38
2022-12-25T02:43:20.658Z,101671.34
2022-12-25T02:46:12.383Z,101681.25
2022-12-25T02:49:02.752Z,101670.63
2022-12-25T02:51:50.428Z,101673.41
2022-12-25T02:54:37.648Z,101658.38
2022-12-25T02:57:25.979Z,101645.06
2022-12-25T03:00:13.408Z,101647.78
2022-12-25T03:03:00.692Z,101652.97
2022-12-25T03:05:46.496Z,101658.97
2022-12-25T03:08:21.559Z,101678.97
2022-12-25T03:11:15.908Z,101690.09
2022-12-25T03:13:43.507Z,101696.81
2022-12-25T03:16:28.906Z,101701.44
2022-12-25T03:18:57.540Z,101709.03
2022-12-25T03:21:42.790Z,101719.28
2022-12-25T03:24:27.996Z,101711.00
2022-12-25T03:26:57.355Z,101713.25
2022-12-25T03:29:49.027Z,101707.19
2022-12-25T03:32:43.420Z,101717.44
2022-12-25T03:35:23.163Z,101712.53
2022-12-25T03:38:44.748Z,101717.03
2022-12-25T03:41:55.598Z,101723.34
2022-12-25T03:44:46.625Z,101715.50
2022-12-25T03:47:39.530Z,101718.88
2022-12-25T03:50:34.063Z,101725.88
2022-12-25T03:53:22.372Z,101732.91
2022-12-25T03:56:09.595Z,101730.66
2022-12-25T03:58:54.811Z,101737.53
2022-12-25T04:01:40.107Z,101739.88
2022-12-25T04:04:25.549Z,101742.41
2022-12-25T04:07:10.764Z,101745.47
2022-12-25T04:09:56.035Z,101735.69
2022-12-25T04:12:41.349Z,101738.63
2022-12-25T04:15:27.549Z,101728.25
2022-12-25T04:18:12.834Z,101730.66
2022-12-25T04:20:58.256Z,101728.00
2022-12-25T04:23:43.369Z,101729.41
2022-12-25T04:26:28.619Z,101722.25
2022-12-25T04:29:13.832Z,101722.25
2022-12-25T04:31:59.247Z,101714.16
2022-12-25T04:34:44.539Z,101703.25
2022-12-25T04:37:11.190Z,101697.22
2022-12-25T04:39:40.617Z,101701.69
2022-12-25T04:42:07.225Z,101699.44
2022-12-25T04:44:33.992Z,101707.69
2022-12-25T04:47:03.567Z,101704.66
2022-12-25T04:49:34.160Z,101701.28
2022-12-25T04:52:00.778Z,101695.00
2022-12-25T04:54:27.331Z,101691.19
2022-12-25T04:56:53.941Z,101693.16
2022-12-25T04:59:20.547Z,101687.16
2022-12-25T05:01:47.375Z,101693.44
2022-12-25T05:04:14.009Z,101691.78
2022-12-25T05:06:40.719Z,101692.03
2022-12-25T05:09:07.300Z,101688.84
2022-12-25T05:11:34.045Z,101685.88
2022-12-25T05:14:00.577Z,101686.16
2022-12-25T05:16:27.412Z,101682.53
2022-12-25T05:18:54.069Z,101695.13
2022-12-25T05:21:20.790Z,101686.88
2022-12-25T05:23:51.385Z,101692.31
2022-12-25T05:26:22.450Z,101685.03
2022-12-25T05:28:49.560Z,101679.44
2022-12-25T05:31:16.484Z,101674.09
2022-12-25T05:33:43.102Z,101678.31
2022-12-25T05:36:11.410Z,101682.25
2022-12-25T05:38:38.556Z,101684.34
2022-12-25T05:41:05.395Z,101671.88
2022-12-25T05:43:31.981Z,101672.00
2022-12-25T05:45:58.651Z,101670.06
2022-12-25T05:48:25.267Z,101669.78
2022-12-25T05:50:51.870Z,101672.31
2022-12-25T05:53:18.460Z,101676.78
2022-12-25T05:55:45.111Z,101684.06
2022-12-25T05:58:12.825Z,101674.53
2022-12-25T06:00:39.857Z,101668.78
2022-12-25T06:03:06.731Z,101665.03
2022-12-25T06:05:33.418Z,101668.09
2022-12-25T06:07:59.997Z,101672.31
2022-12-25T06:10:26.676Z,101662.63
2022-12-25T06:12:53.278Z,101664.88
2022-12-25T06:15:19.905Z,101670.31
2022-12-25T06:17:46.585Z,101663.34
2022-12-25T06:20:13.252Z,101665.31
2022-12-25T06:22:40.094Z,101647.78
2022-12-25T06:25:08.443Z,101644.00
2022-12-25T06:27:35.092Z,101647.50
2022-12-25T06:30:01.800Z,101640.63
2022-12-25T06:32:28.414Z,101622.72
2022-12-25T06:34:55.034Z,101625.09
2022-12-25T06:37:21.669Z,101614.88
2022-12-25T06:39:48.265Z,101608.03
2022-12-25T06:42:14.967Z,101605.09
2022-12-25T06:44:41.578Z,101612.94
2022-12-25T06:47:08.157Z,101609.28
2022-12-25T06:49:34.748Z,101606.78
2022-12-25T06:52:01.385Z,101609.44
2022-12-25T06:54:28.091Z,101614.06
2022-12-25T06:56:54.759Z,101619.09
2022-12-25T06:59:21.724Z,101631.56
2022-12-25T07:01:49.648Z,101632.81
2022-12-25T07:04:22.240Z,101642.91
2022-12-25T07:06:48.810Z,101640.09
2022-12-25T07:09:15.423Z,101636.72
2022-12-25T07:11:42.147Z,101635.47
2022-12-25T07:14:23.387Z,101635.59
2022-12-25T07:16:50.733Z,101637.28
2022-12-25T07:19:17.462Z,101632.94
2022-12-25T07:21:44.035Z,101635.47
2022-12-25T07:24:11.287Z,101616.97
2022-12-25T07:26:37.843Z,101617.66
2022-12-25T07:29:05.575Z,101612.75
2022-12-25T07:31:32.275Z,101608.28
2022-12-25T07:33:58.931Z,101607.59
2022-12-25T07:36:25.610Z,101609.25
2022-12-25T07:38:52.292Z,101606.44
2022-12-25T07:41:18.938Z,101598.28
2022-12-25T07:43:45.559Z,101602.09
2022-12-25T07:46:12.246Z,101603.88
2022-12-25T07:48:38.933Z,101606.97
2022-12-25T07:51:08.140Z,101601.09
2022-12-25T07:53:35.251Z,101597.44
2022-12-25T07:56:07.022Z,101605.00
2022-12-25T07:58:34.436Z,101606.25
2022-12-25T08:01:13.666Z,101621.81
2022-12-25T08:03:40.588Z,101622.66
2022-12-25T08:06:09.541Z,101615.81
2022-12-25T08:08:37.056Z,101627.97
2022-12-25T08:11:04.322Z,101618.88
2022-12-25T08:13:31.940Z,101603.72
2022-12-25T08:16:02.825Z,101601.34
2022-12-25T08:18:30.593Z,101601.34
2022-12-25T08:21:00.381Z,101605.69
2022-12-25T08:23:26.996Z,101606.97
2022-12-25T08:25:56.600Z,101613.56
2022-12-25T08:28:25.430Z,101601.38
2022-12-25T08:30:52.086Z,101611.06
2022-12-25T08:33:18.701Z,101620.72
2022-12-25T08:35:45.376Z,101621.69
2022-12-25T08:38:11.910Z,101620.28
2022-12-25T08:40:38.490Z,101625.00
2022-12-25T08:43:05.099Z,101618.19
2022-12-25T08:45:35.240Z,101616.34
2022-12-25T08:48:02.175Z,101609.50
2022-12-25T08:50:28.803Z,101601.22
2022-12-25T08:52:55.443Z,101591.84
2022-12-25T08:55:22.225Z,101587.59
2022-12-25T08:57:48.792Z,101589.84
2022-12-25T09:00:15.825Z,101585.09
2022-12-25T09:02:42.514Z,101581.44
2022-12-25T09:05:09.415Z,101594.88
2022-12-25T09:07:36.005Z,101604.00
2022-12-25T09:10:02.707Z,101604.94
2022-12-25T09:12:29.302Z,101619.22
2022-12-25T09:14:55.892Z,101624.06
2022-12-25T09:17:22.597Z,101621.28
2022-12-25T09:19:49.211Z,101621.28
2022-12-25T09:22:15.788Z,101633.03
2022-12-25T09:24:43.701Z,101621.38
2022-12-25T09:27:10.499Z,101621.63
2022-12-25T09:29:38.970Z,101625.28
2022-12-25T09:32:06.900Z,101620.66
2022-12-25T09:34:33.603Z,101625.78
2022-12-25T09:37:00.182Z,101635.88
2022-12-25T09:39:26.994Z,101637.25
2022-12-25T09:42:04.529Z,101625.88
2022-12-25T09:44:35.117Z,101601.03
2022-12-25T09:47:05.934Z,101579.25
2022-12-25T09:49:56.980Z,101561.03
2022-12-25T09:52:37.909Z,101539.31
2022-12-25T09:55:22.287Z,101534.69
2022-12-25T09:57:56.338Z,101543.16
2022-12-25T10:00:25.799Z,101533.00
2022-12-25T10:03:11.029Z,101528.06
2022-12-25T10:05:58.929Z,101525.94
2022-12-25T10:08:51.475Z,101517.03
2022-12-25T10:11:26.875Z,101506.81
2022-12-25T10:14:18.939Z,101514.66
2022-12-25T10:16:57.169Z,101534.69
2022-12-25T10:19:35.384Z,101533.88
2022-12-25T10:22:08.327Z,101538.91
2022-12-25T10:24:38.711Z,101537.75
2022-12-25T10:27:13.927Z,101527.94
2022-12-25T10:29:41.649Z,101514.41
2022-12-25T10:32:09.220Z,101513.28
2022-12-25T10:34:37.488Z,101517.63
2022-12-25T10:37:04.100Z,101519.31
2022-12-25T10:39:30.758Z,101518.75
2022-12-25T10:42:18.776Z,101517.78
2022-12-25T10:44:59.909Z,101514.41
2022-12-25T10:47:29.899Z,101518.06
2022-12-25T10:49:57.089Z,101515.28
2022-12-25T10:52:25.903Z,101503.44
2022-12-25T10:54:52.760Z,101508.34
2022-12-25T10:57:22.456Z,101516.72
2022-12-25T10:59:57.089Z,101502.06
2022-12-25T11:02:35.084Z,101500.91
2022-12-25T11:05:10.652Z,101500.75
2022-12-25T11:07:46.754Z,101499.31
2022-12-25T11:10:16.414Z,101486.13
2022-12-25T11:12:44.982Z,101485.13
2022-12-25T11:15:32.500Z,101469.66
2022-12-25T11:17:59.163Z,101462.38
2022-12-25T11:20:26.079Z,101465.19
2022-12-25T11:22:52.797Z,101464.25
2022-12-25T11:25:27.716Z,101463.78
2022-12-25T11:28:04.987Z,101459.44
2022-12-25T11:30:33.478Z,101460.31
2022-12-25T11:33:06.875Z,101460.69
2022-12-25T11:35:50.348Z,101457.34
2022-12-25T11:38:17.026Z,101429.78
2022-12-25T11:40:55.965Z,101420.13
2022-12-25T11:43:29.930Z,101402.44
2022-12-25T11:46:06.724Z,101406.44
2022-12-25T11:49:00.820Z,101395.31
2022-12-25T11:51:32.399Z,101397.66
2022-12-25T11:54:10.987Z,101391.09
2022-12-25T11:56:37.932Z,101383.28
2022-12-25T11:59:18.570Z,101388.13
2022-12-25T12:01:48.228Z,101367.75
2022-12-25T12:04:31.805Z,101358.41
2022-12-25T12:07:05.347Z,101361.75
2022-12-25T12:09:51.282Z,101358.56
2022-12-25T12:12:58.870Z,101342.56
2022-12-25T12:15:36.330Z,101323.88
2022-12-25T12:18:22.420Z,101333.22
2022-12-25T12:21:01.266Z,101319.34
2022-12-25T12:23:29.577Z,101310.53
2022-12-25T12:25:56.516Z,101322.03
2022-12-25T12:28:26.650Z,101307.53
2022-12-25T12:30:59.461Z,101301.19
2022-12-25T12:33:29.710Z,101301.53
2022-12-25T12:35:56.529Z,101293.00
2022-12-25T12:38:23.436Z,101288.66
2022-12-25T12:40:53.675Z,101282.31
2022-12-25T12:43:23.311Z,101277.66
2022-12-25T12:45:56.401Z,101279.19
2022-12-25T12:48:26.450Z,101275.66
2022-12-25T12:51:10.875Z,101275.84
2022-12-25T12:53:42.752Z,101265.50
2022-12-25T12:56:20.283Z,101272.97
2022-12-25T12:58:50.779Z,101269.16
2022-12-25T13:01:37.903Z,101262.31
2022-12-25T13:04:04.505Z,101248.44
2022-12-25T13:06:46.507Z,101243.94
2022-12-25T13:09:22.274Z,101247.13
2022-12-25T13:11:49.462Z,101258.63
2022-12-25T13:14:19.599Z,101256.97
2022-12-25T13:16:49.146Z,101243.94
2022-12-25T13:19:24.961Z,101236.94
2022-12-25T13:22:00.377Z,101229.25
2022-12-25T13:24:32.614Z,101224.59
2022-12-25T13:27:00.009Z,101214.25
2022-12-25T13:29:33.639Z,101213.56
2022-12-25T13:32:02.288Z,101216.41
2022-12-25T13:34:33.010Z,101212.06
2022-12-25T13:37:00.963Z,101207.38
2022-12-25T13:39:28.531Z,101202.22
2022-12-25T13:42:09.557Z,101196.03
2022-12-25T13:44:52.271Z,101191.38
2022-12-25T13:47:32.268Z,101191.38
2022-12-25T13:50:01.768Z,101191.03
2022-12-25T13:52:34.641Z,101200.91
2022-12-25T13:55:12.287Z,101194.88
2022-12-25T13:57:51.563Z,101200.38
2022-12-25T14:00:32.385Z,101205.72
2022-12-25T14:02:59.671Z,101210.06
2022-12-25T14:05:28.503Z,101207.06
2022-12-25T14:07:56.763Z,101208.25
2022-12-25T14:10:25.489Z,101209.44
2022-12-25T14:12:54.113Z,101207.25
2022-12-25T14:15:22.568Z,101211.25
2022-12-25T14:17:50.733Z,101200.56
2022-12-25T14:20:27.514Z,101204.06
2022-12-25T14:22:56.075Z,101201.38
2022-12-25T14:25:41.936Z,101198.03
2022-12-25T14:28:20.411Z,101189.03
2022-12-25T14:30:47.454Z,101197.22
2022-12-25T14:33:16.433Z,101192.22
2022-12-25T14:35:43.432Z,101191.56
2022-12-25T14:38:20.382Z,101194.38
2022-12-25T14:40:47.045Z,101196.72
2022-12-25T14:43:26.060Z,101201.38
2022-12-25T14:45:57.667Z,101192.38
2022-12-25T14:48:29.483Z,101193.88
2022-12-25T14:51:02.240Z,101199.03
2022-12-25T14:53:57.053Z,101196.72
2022-12-25T14:56:25.786Z,101191.38
2022-12-25T14:58:55.003Z,101192.22
2022-12-25T15:01:36.528Z,101191.72
2022-12-25T15:04:12.271Z,101189.69
2022-12-25T15:06:40.585Z,101195.03
2022-12-25T15:09:15.192Z,101185.22
2022-12-25T15:11:41.776Z,101187.88
2022-12-25T15:14:10.756Z,101188.38
2022-12-25T15:16:41.898Z,101192.88
2022-12-25T15:19:11.792Z,101198.03
2022-12-25T15:21:41.138Z,101199.22
2022-12-25T15:24:11.811Z,101190.41
2022-12-25T15:26:38.705Z,101187.88
2022-12-25T15:29:07.375Z,101184.69
2022-12-25T15:31:36.106Z,101184.69
2022-12-25T15:34:06.862Z,101184.56
2022-12-25T15:36:34.208Z,101178.88
2022-12-25T15:39:01.012Z,101174.03
2022-12-25T15:41:47.293Z,101178.38
2022-12-25T15:44:14.473Z,101171.53
2022-12-25T15:46:41.717Z,101181.03
2022-12-25T15:49:10.517Z,101179.88
2022-12-25T15:51:37.223Z,101174.88
2022-12-25T15:54:04.120Z,101173.03
2022-12-25T15:56:51.236Z,101170.72
2022-12-25T15:59:19.639Z,101176.06
2022-12-25T16:01:49.299Z,101173.53
2022-12-25T16:04:16.371Z,101173.69
2022-12-25T16:06:43.141Z,101183.72
2022-12-25T16:09:13.838Z,101189.41
2022-12-25T16:11:40.912Z,101189.22
2022-12-25T16:14:07.973Z,101186.75
2022-12-25T16:16:34.718Z,101183.88
2022-12-25T16:19:01.445Z,101183.72
2022-12-25T16:21:36.468Z,101183.22
2022-12-25T16:24:03.178Z,101170.88
2022-12-25T16:26:30.635Z,101169.19
2022-12-25T16:28:59.121Z,101167.88
2022-12-25T16:31:27.841Z,101163.19
2022-12-25T16:33:54.672Z,101161.53
2022-12-25T16:36:26.795Z,101167.38
2022-12-25T16:38:53.825Z,101154.19
2022-12-25T16:41:20.503Z,101155.03
2022-12-25T16:43:47.270Z,101146.69
2022-12-25T16:46:17.393Z,101139.03
2022-12-25T16:48:44.121Z,101134.50
2022-12-25T16:51:16.691Z,101129.34
2022-12-25T16:53:43.566Z,101145.50
2022-12-25T16:56:14.795Z,101152.84
2022-12-25T16:58:42.207Z,101154.69
2022-12-25T17:01:11.359Z,101144.19
2022-12-25T17:03:38.872Z,101144.84
2022-12-25T17:06:23.152Z,101132.34
2022-12-25T17:08:51.965Z,101143.50
2022-12-25T17:11:23.609Z,101142.34
2022-12-25T17:13:50.622Z,101149.03
2022-12-25T17:16:19.832Z,101142.34
2022-12-25T17:18:46.696Z,101146.38
2022-12-25T17:21:15.904Z,101137.00
2022-12-25T17:23:43.235Z,101145.38
2022-12-25T17:26:09.864Z,101127.16
2022-12-25T17:28:36.570Z,101136.03
2022-12-25T17:31:08.407Z,101134.34
2022-12-25T17:33:36.695Z,101143.19
2022-12-25T17:36:05.380Z,101136.84
2022-12-25T17:38:32.626Z,101138.16
2022-12-25T17:41:00.484Z,101142.34
2022-12-25T17:43:27.136Z,101139.50
2022-12-25T17:45:53.788Z,101142.03
2022-12-25T17:48:20.423Z,101135.69
2022-12-25T17:50:47.656Z,101131.50
2022-12-25T17:53:14.511Z,101115.13
2022-12-25T17:55:41.329Z,101110.63
2022-12-25T17:58:08.680Z,101126.47
2022-12-25T18:00:36.067Z,101115.13
2022-12-25T18:03:09.042Z,101128.13
2022-12-25T18:05:38.013Z,101119.25
2022-12-25T18:08:05.337Z,101125.53
2022-12-25T18:10:38.548Z,101124.22
2022-12-25T18:13:05.595Z,101104.84
2022-12-25T18:15:32.483Z,101109.06
2022-12-25T18:17:59.139Z,101116.72
2022-12-25T18:20:25.780Z,101126.88
2022-12-25T18:22:52.426Z,101128.16
2022-12-25T18:25:19.103Z,101131.69
2022-12-25T18:27:45.786Z,101131.72
2022-12-25T18:30:14.932Z,101131.06
2022-12-25T18:32:48.206Z,101139.88
2022-12-25T18:35:19.193Z,101132.03
2022-12-25T18:37:48.182Z,101136.22
2022-12-25T18:40:14.954Z,101152.91
2022-12-25T18:42:43.062Z,101156.06
2022-12-25T18:45:12.639Z,101160.59
2022-12-25T18:47:39.446Z,101150.38
2022-12-25T18:50:07.399Z,101147.22
2022-12-25T18:52:49.507Z,101146.72
2022-12-25T18:55:18.048Z,101138.22
2022-12-25T18:57:44.769Z,101134.06
2022-12-25T19:00:11.761Z,101136.72
2022-12-25T19:02:38.646Z,101133.66
2022-12-25T19:05:06.039Z,101135.69
2022-12-25T19:07:32.757Z,101134.00
2022-12-25T19:09:59.349Z,101126.88
2022-12-25T19:12:26.007Z,101132.22
2022-12-25T19:14:53.009Z,101124.53
2022-12-25T19:17:19.739Z,101132.59
2022-12-25T19:19:46.505Z,101127.44
2022-12-25T19:22:13.249Z,101127.38
2022-12-25T19:24:39.989Z,101118.16
2022-12-25T19:27:07.027Z,101121.03
2022-12-25T19:29:34.093Z,101124.53
2022-12-25T19:32:00.875Z,101119.38
2022-12-25T19:34:32.091Z,101127.53
2022-12-25T19:36:58.834Z,101132.38
2022-12-25T19:39:25.421Z,101132.34
2022-12-25T19:41:52.040Z,101126.63
2022-12-25T19:44:19.467Z,101130.94
2022-12-25T19:46:46.175Z,101125.84
2022-12-25T19:49:13.678Z,101131.50
2022-12-25T19:51:42.677Z,101132.31
2022-12-25T19:54:14.653Z,101139.16
2022-12-25T19:56:41.871Z,101126.81
2022-12-25T19:59:08.975Z,101135.94
2022-12-25T20:01:35.730Z,101145.97
2022-12-25T20:04:02.489Z,101152.06
2022-12-25T20:06:31.307Z,101152.09
2022-12-25T20:09:04.314Z,101136.94
2022-12-25T20:11:32.531Z,101139.63
2022-12-25T20:13:59.476Z,101147.19
2022-12-25T20:16:26.191Z,101141.50
2022-12-25T20:18:55.115Z,101147.81
2022-12-25T20:21:22.821Z,101147.97
2022-12-25T20:23:51.934Z,101143.50
2022-12-25T20:26:20.443Z,101148.13
2022-12-25T20:28:47.298Z,101151.78
2022-12-25T20:31:18.440Z,101153.13
2022-12-25T20:33:45.058Z,101163.34
2022-12-25T20:36:12.338Z,101170.81
2022-12-25T20:38:39.305Z,101167.19
2022-12-25T20:43:54.170Z,101174.34
2022-12-25T20:46:22.315Z,101182.03
2022-12-25T20:48:49.122Z,101175.00
2022-12-25T20:51:18.364Z,101182.34
2022-12-25T20:53:45.684Z,101186.53
2022-12-25T20:56:13.740Z,101189.47
2022-12-25T20:58:40.582Z,101189.19
2022-12-25T21:01:10.254Z,101194.47
2022-12-25T21:03:37.332Z,101185.66
2022-12-25T21:06:04.235Z,101188.34
2022-12-25T21:08:31.300Z,101193.53
2022-12-25T21:11:01.843Z,101181.53
2022-12-25T21:13:31.470Z,101197.91
2022-12-25T21:15:58.827Z,101192.88
2022-12-25T21:18:27.225Z,101195.44
2022-12-25T21:20:58.618Z,101191.09
2022-12-25T21:23:28.556Z,101204.09
2022-12-25T21:25:55.206Z,101197.09
2022-12-25T21:28:23.341Z,101217.06
2022-12-25T21:30:50.252Z,101220.25
2022-12-25T21:33:35.305Z,101215.09
2022-12-25T21:36:11.018Z,101212.56
2022-12-25T21:38:38.333Z,101208.22
2022-12-25T21:41:06.963Z,101216.72
2022-12-25T21:43:34.883Z,101207.88
2022-12-25T21:46:09.418Z,101214.19
2022-12-25T21:48:37.136Z,101210.31
2022-12-25T21:51:25.059Z,101216.53
2022-12-25T21:53:51.715Z,101226.69
2022-12-25T21:56:18.495Z,101218.06
2022-12-25T21:58:45.170Z,101206.72
2022-12-25T22:01:11.980Z,101210.41
2022-12-25T22:03:38.777Z,101220.06
2022-12-25T22:06:24.590Z,101219.03
2022-12-25T22:08:51.180Z,101213.34
2022-12-25T22:11:36.333Z,101221.22
2022-12-25T22:14:52.685Z,101233.63
2022-12-25T22:17:28.248Z,101232.22
2022-12-25T22:19:55.801Z,101244.59
2022-12-25T22:22:28.363Z,101242.13
2022-12-25T22:24:59.827Z,101242.81
2022-12-25T22:27:31.028Z,101236.09
2022-12-25T22:29:57.694Z,101254.88
2022-12-25T22:32:26.565Z,101268.41
2022-12-25T22:34:53.214Z,101263.72
2022-12-25T22:37:19.854Z,101273.59
2022-12-25T22:39:46.472Z,101273.41
2022-12-25T22:42:13.666Z,101260.00
2022-12-25T22:44:40.292Z,101258.19
2022-12-25T22:47:06.913Z,101259.88
2022-12-25T22:49:33.718Z,101267.72
2022-12-25T22:52:00.516Z,101267.22
2022-12-25T22:54:31.014Z,101268.06
2022-12-25T22:56:58.091Z,101258.56
2022-12-25T22:59:24.979Z,101262.22
2022-12-25T23:01:51.868Z,101262.69
2022-12-25T23:04:18.595Z,101262.56
2022-12-25T23:06:46.457Z,101256.88
2022-12-25T23:09:22.104Z,101263.25
2022-12-25T23:11:50.976Z,101275.88
2022-12-25T23:14:36.123Z,101270.72
2022-12-25T23:17:03.370Z,101256.22
2022-12-25T23:19:48.842Z,101261.72
2022-12-25T23:22:34.242Z,101259.75
2022-12-25T23:25:19.467Z,101272.78
2022-12-25T23:27:46.068Z,101271.25
2022-12-25T23:30:15.155Z,101269.94
2022-12-25T23:32:42.695Z,101268.75
2022-12-25T23:35:09.658Z,101261.22
2022-12-25T23:37:36.222Z,101256.38
2022-12-25T23:40:03.197Z,101260.06
2022-12-25T23:42:29.910Z,101276.03
2022-12-25T23:44:56.536Z,101269.25
2022-12-25T23:47:23.243Z,101275.06
2022-12-25T23:49:49.834Z,101266.91
2022-12-25T23:52:16.430Z,101261.38
2022-12-25T23:54:44.272Z,101276.59
2022-12-25T23:57:11.977Z,101278.59
2022-12-25T23:59:39.266Z,101278.94
